Time;durP1;ratioP1;P1;durP2;ratioP2;P2;SDS_P1;SDS_P2;PMS_P1;PMS_P2;Temp;Humidity;BMP_temperature;BMP_pressure;BME280_temperature;BME280_humidity;BME280_pressure;Samples;Min_cycle;Max_cycle;Signal;HPM_P1;HPM_P2
2021/01/07 00:01:15;;;;;;;20.37;9.60;;;;;;;3.99;72.53;98306.23;120034;1151;104771;-69
2021/01/07 00:03:42;;;;;;;18.83;8.67;;;;;;;3.86;72.96;98306.11;120069;1151;104528;-70
2021/01/07 00:06:14;;;;;;;19.95;8.65;;;;;;;3.79;72.71;98305.62;119860;1150;104442;-69
2021/01/07 00:08:42;;;;;;;21.37;9.73;;;;;;;3.71;72.77;98307.84;121212;1151;101907;-70
2021/01/07 00:11:10;;;;;;;23.23;10.27;;;;;;;3.64;72.60;98298.59;121473;1150;104454;-68
2021/01/07 00:13:38;;;;;;;27.27;11.23;;;;;;;3.64;72.50;98291.56;119948;1151;104450;-67
2021/01/07 00:16:06;;;;;;;25.70;10.90;;;;;;;3.63;72.47;98287.23;120077;1151;104686;-69
2021/01/07 00:18:33;;;;;;;26.90;12.50;;;;;;;3.58;72.62;98282.22;119955;1151;104358;-70
2021/01/07 00:21:01;;;;;;;27.77;14.17;;;;;;;3.55;72.74;98281.56;119940;1151;104461;-69
2021/01/07 00:23:28;;;;;;;38.90;18.50;;;;;;;3.51;72.44;98280.03;119929;1151;104452;-70
2021/01/07 00:25:55;;;;;;;38.80;20.60;;;;;;;3.49;72.84;98280.11;120046;1151;104471;-68
2021/01/07 00:28:24;;;;;;;39.95;18.90;;;;;;;3.48;72.61;98270.52;119813;1151;104455;-69
2021/01/07 00:30:52;;;;;;;40.65;20.10;;;;;;;3.46;72.36;98269.79;120675;1150;104394;-70
2021/01/07 00:33:20;;;;;;;34.50;18.03;;;;;;;3.41;72.91;98269.20;120039;1151;104824;-69
2021/01/07 00:35:46;;;;;;;33.60;13.97;;;;;;;3.31;72.47;98274.10;120021;1151;104368;-69
2021/01/07 00:38:14;;;;;;;30.07;13.67;;;;;;;3.25;72.80;98263.95;120024;1151;104445;-70
2021/01/07 00:40:42;;;;;;;32.42;14.78;;;;;;;3.24;72.50;98270.98;119956;1151;104551;-70
2021/01/07 00:43:08;;;;;;;29.65;14.10;;;;;;;3.22;72.84;98264.95;119905;1151;104834;-69
2021/01/07 00:45:36;;;;;;;28.50;12.13;;;;;;;3.20;73.00;98255.47;119909;1151;104564;-67
2021/01/07 00:48:04;;;;;;;30.47;13.00;;;;;;;3.16;72.32;98261.83;119838;1151;104439;-70
2021/01/07 00:50:31;;;;;;;32.30;13.23;;;;;;;3.08;73.03;98254.34;120419;1151;104386;-70
2021/01/07 00:52:58;;;;;;;29.27;13.60;;;;;;;2.98;72.92;98260.13;120008;1151;104503;-69
2021/01/07 00:55:25;;;;;;;34.15;16.15;;;;;;;2.79;72.12;98259.42;119958;1151;104475;-68
2021/01/07 00:57:53;;;;;;;32.37;15.03;;;;;;;2.61;71.97;98263.87;120026;1151;104491;-71
2021/01/07 01:00:20;;;;;;;32.00;15.67;;;;;;;2.44;72.63;98268.27;120056;1151;104462;-71
2021/01/07 01:02:46;;;;;;;33.33;14.60;;;;;;;2.35;72.76;98268.73;120167;1151;104415;-71
2021/01/07 01:05:15;;;;;;;31.70;14.30;;;;;;;2.30;72.85;98271.58;120052;1151;104427;-70
2021/01/07 01:07:42;;;;;;;34.70;15.83;;;;;;;2.26;72.43;98284.95;120136;1151;104352;-71
2021/01/07 01:10:11;;;;;;;35.00;16.60;;;;;;;2.22;72.97;98279.02;120009;1151;104384;-70
2021/01/07 01:12:39;;;;;;;34.63;17.63;;;;;;;2.20;72.52;98284.33;119935;1151;104376;-70
2021/01/07 01:15:12;;;;;;;34.83;15.97;;;;;;;2.19;72.97;98289.67;119941;1151;104376;-70
2021/01/07 01:17:41;;;;;;;34.15;17.32;;;;;;;2.20;72.70;98292.20;120087;1151;104361;-70
2021/01/07 01:20:11;;;;;;;34.63;16.43;;;;;;;2.22;73.02;98292.97;120010;1151;104457;-69
2021/01/07 01:22:41;;;;;;;31.90;14.67;;;;;;;2.28;72.92;98290.97;119983;1151;104359;-70
2021/01/07 01:25:10;;;;;;;33.53;16.27;;;;;;;2.33;73.11;98286.33;120002;1151;104391;-70
2021/01/07 01:27:40;;;;;;;34.67;14.60;;;;;;;2.37;73.26;98274.75;120069;1151;104351;-70
2021/01/07 01:30:09;;;;;;;29.00;13.70;;;;;;;2.40;72.44;98284.23;119962;1151;104505;-70
2021/01/07 01:32:38;;;;;;;36.53;15.40;;;;;;;2.40;72.67;98286.86;120133;1151;104446;-68
2021/01/07 01:35:07;;;;;;;35.23;15.63;;;;;;;2.39;73.13;98278.15;119995;1151;104487;-71
2021/01/07 01:37:38;;;;;;;31.60;14.97;;;;;;;2.35;72.29;98280.06;120027;1150;104450;-70
2021/01/07 01:40:08;;;;;;;31.15;14.55;;;;;;;2.32;73.31;98284.63;120036;1151;104499;-70
2021/01/07 01:42:36;;;;;;;30.87;14.93;;;;;;;2.32;72.81;98277.59;119921;1151;104458;-71
2021/01/07 01:45:05;;;;;;;32.20;14.93;;;;;;;2.35;72.39;98271.36;120078;1151;104455;-71
2021/01/07 01:47:31;;;;;;;30.87;13.70;;;;;;;2.32;72.99;98267.09;120060;1151;104400;-70
2021/01/07 01:49:59;;;;;;;25.35;11.85;;;;;;;2.26;72.58;98270.03;119967;1151;104423;-69
2021/01/07 01:52:27;;;;;;;31.03;13.93;;;;;;;2.16;72.38;98269.66;119860;1151;104473;-70
2021/01/07 01:54:54;;;;;;;31.73;14.37;;;;;;;2.08;72.87;98261.33;119949;1150;104463;-70
2021/01/07 01:57:21;;;;;;;29.27;13.05;;;;;;;2.00;72.50;98247.78;120044;1151;104377;-70
2021/01/07 01:59:48;;;;;;;29.33;13.47;;;;;;;1.96;72.85;98249.70;120039;1151;104378;-68
2021/01/07 02:02:17;;;;;;;28.13;12.53;;;;;;;1.96;72.67;98252.31;120026;1151;104403;-68
2021/01/07 02:04:46;;;;;;;24.93;12.27;;;;;;;1.99;73.59;98246.09;120090;1151;104380;-69
2021/01/07 02:07:22;;;;;;;27.10;11.87;;;;;;;2.01;73.40;98241.61;120059;1151;104381;-69
2021/01/07 02:09:50;;;;;;;30.37;13.10;;;;;;;2.06;73.30;98243.06;119983;1151;104474;-69
2021/01/07 02:12:18;;;;;;;26.73;13.00;;;;;;;2.13;72.97;98235.72;120002;1151;104433;-70
2021/01/07 02:14:47;;;;;;;27.93;13.63;;;;;;;2.21;73.16;98237.97;119990;1151;104352;-70
2021/01/07 02:17:15;;;;;;;28.50;13.00;;;;;;;2.27;73.27;98239.41;121028;1151;104476;-69
2021/01/07 02:19:43;;;;;;;29.00;12.97;;;;;;;2.31;73.33;98235.70;119999;1151;104429;-68
2021/01/07 02:22:12;;;;;;;30.50;14.80;;;;;;;2.34;72.92;98225.05;120012;1151;104383;-71
2021/01/07 02:24:40;;;;;;;31.37;15.10;;;;;;;2.37;73.90;98224.88;121357;1150;104399;-69
2021/01/07 02:27:09;;;;;;;35.90;18.23;;;;;;;2.42;73.14;98224.63;119923;1151;104381;-69
2021/01/07 02:29:38;;;;;;;34.63;16.97;;;;;;;2.44;73.15;98210.52;120099;1151;104609;-69
2021/01/07 02:32:06;;;;;;;35.27;17.13;;;;;;;2.48;72.97;98213.81;119977;1151;104448;-68
2021/01/07 02:34:34;;;;;;;35.40;17.60;;;;;;;2.50;72.87;98218.03;120049;1151;104471;-68
2021/01/07 02:37:01;;;;;;;36.70;17.80;;;;;;;2.52;73.21;98213.55;119937;1151;104526;-68
2021/01/07 02:39:28;;;;;;;34.70;17.50;;;;;;;2.54;73.22;98213.48;119977;1151;104394;-70
2021/01/07 02:41:56;;;;;;;31.73;16.20;;;;;;;2.52;73.10;98221.42;119984;1151;104483;-70
2021/01/07 02:44:24;;;;;;;33.43;15.33;;;;;;;2.51;73.20;98224.15;120000;1151;104871;-67
2021/01/07 02:46:54;;;;;;;31.27;15.70;;;;;;;2.47;73.17;98217.36;119993;1151;104380;-70
2021/01/07 02:49:21;;;;;;;30.60;16.15;;;;;;;2.47;72.81;98214.73;119989;1151;104465;-71
2021/01/07 02:51:49;;;;;;;34.33;17.67;;;;;;;2.47;73.23;98206.86;119926;1151;104446;-70
2021/01/07 02:54:16;;;;;;;33.30;15.63;;;;;;;2.46;73.39;98210.42;119947;1151;104387;-70
2021/01/07 02:56:43;;;;;;;31.80;15.40;;;;;;;2.47;73.25;98210.32;120100;1151;104456;-68
2021/01/07 02:59:11;;;;;;;32.00;16.17;;;;;;;2.48;72.97;98211.19;120096;1151;104457;-69
2021/01/07 03:01:39;;;;;;;33.90;16.40;;;;;;;2.49;73.09;98210.25;120047;1151;104457;-70
2021/01/07 03:04:06;;;;;;;31.57;15.15;;;;;;;2.48;73.72;98201.52;120101;1151;104486;-68
2021/01/07 03:06:33;;;;;;;30.60;15.03;;;;;;;2.49;73.66;98205.00;120041;1151;104532;-68
2021/01/07 03:09:00;;;;;;;33.70;16.30;;;;;;;2.50;73.01;98197.03;119929;1151;104375;-69
2021/01/07 03:11:27;;;;;;;33.65;15.68;;;;;;;2.52;73.07;98189.09;119970;1151;104356;-69
2021/01/07 03:13:54;;;;;;;29.73;14.77;;;;;;;2.52;73.76;98181.22;119997;1151;104359;-69
2021/01/07 03:16:22;;;;;;;32.90;16.40;;;;;;;2.54;73.08;98179.36;120105;1151;104492;-70
2021/01/07 03:18:50;;;;;;;37.43;16.47;;;;;;;2.54;73.09;98179.36;119930;1151;104358;-70
2021/01/07 03:21:17;;;;;;;31.73;16.37;;;;;;;2.53;73.00;98177.66;119965;1151;104422;-69
2021/01/07 03:23:44;;;;;;;31.77;16.70;;;;;;;2.52;73.04;98176.80;119861;1151;104538;-69
2021/01/07 03:26:12;;;;;;;34.53;16.60;;;;;;;2.53;73.09;98175.87;120011;1153;104384;-69
2021/01/07 03:28:39;;;;;;;32.70;16.82;;;;;;;2.56;73.74;98174.01;119971;1153;104568;-69
2021/01/07 03:31:06;;;;;;;33.45;18.00;;;;;;;2.56;73.45;98167.00;120042;1151;104375;-70
2021/01/07 03:33:33;;;;;;;32.95;17.15;;;;;;;2.56;73.07;98155.63;120050;1151;104393;-69
2021/01/07 03:36:00;;;;;;;36.47;17.60;;;;;;;2.57;73.42;98167.83;119956;1151;104452;-69
2021/01/07 03:38:27;;;;;;;33.07;16.57;;;;;;;2.57;73.32;98166.06;120011;1151;104459;-69
2021/01/07 03:40:55;;;;;;;34.87;16.90;;;;;;;2.58;73.69;98161.64;120048;1151;104527;-70
2021/01/07 03:43:23;;;;;;;33.17;15.83;;;;;;;2.55;73.44;98161.81;120005;1151;104378;-68
2021/01/07 03:45:50;;;;;;;33.70;16.57;;;;;;;2.50;73.15;98159.45;120008;1151;104487;-69
2021/01/07 03:48:17;;;;;;;32.63;15.73;;;;;;;2.52;73.49;98157.59;120036;1151;104484;-68
2021/01/07 03:50:44;;;;;;;30.57;16.27;;;;;;;2.55;73.49;98159.19;120102;1151;104468;-68
2021/01/07 03:53:12;;;;;;;31.63;16.93;;;;;;;2.58;73.58;98157.26;119941;1151;104480;-68
2021/01/07 03:55:38;;;;;;;30.60;16.00;;;;;;;2.61;74.26;98161.48;119962;1151;104368;-69
2021/01/07 03:58:06;;;;;;;30.57;16.53;;;;;;;2.63;73.49;98151.74;120006;1150;104428;-70
2021/01/07 04:00:33;;;;;;;32.50;16.00;;;;;;;2.63;73.90;98146.49;120070;1151;104396;-69
2021/01/07 04:03:00;;;;;;;31.85;15.32;;;;;;;2.63;74.21;98154.37;119974;1151;104380;-69
2021/01/07 04:05:27;;;;;;;30.40;15.20;;;;;;;2.62;73.53;98161.41;119928;1151;104422;-70
2021/01/07 04:07:54;;;;;;;34.30;16.97;;;;;;;2.61;73.84;98158.86;119935;1151;104350;-70
2021/01/07 04:10:21;;;;;;;31.95;16.77;;;;;;;2.58;74.10;98159.02;119977;1151;104446;-69
2021/01/07 04:12:49;;;;;;;34.00;16.40;;;;;;;2.55;73.50;98157.42;119943;1151;104353;-69
2021/01/07 04:15:16;;;;;;;30.50;14.07;;;;;;;2.50;73.06;98157.66;119873;1151;104422;-69
2021/01/07 04:17:43;;;;;;;27.13;13.43;;;;;;;2.44;73.72;98160.64;120026;1151;104460;-70
2021/01/07 04:20:12;;;;;;;26.10;13.13;;;;;;;2.41;73.81;98160.80;119974;1151;104475;-70
2021/01/07 04:22:40;;;;;;;27.83;14.03;;;;;;;2.40;73.65;98169.61;120023;1151;104465;-68
2021/01/07 04:25:09;;;;;;;27.33;14.20;;;;;;;2.42;73.71;98164.26;120055;1151;104494;-67
2021/01/07 04:27:36;;;;;;;29.37;13.60;;;;;;;2.40;73.83;98160.87;120079;1151;104378;-71
2021/01/07 04:30:10;;;;;;;28.15;14.00;;;;;;;2.39;73.49;98165.28;119994;1151;104348;-71
2021/01/07 04:32:37;;;;;;;27.07;13.53;;;;;;;2.40;73.42;98161.73;120100;1151;104372;-71
2021/01/07 04:35:05;;;;;;;34.50;16.93;;;;;;;2.44;74.31;98157.16;120039;1150;104383;-69
2021/01/07 04:37:34;;;;;;;33.95;17.70;;;;;;;2.48;73.82;98156.89;120184;1151;104569;-70
2021/01/07 04:40:01;;;;;;;32.20;17.55;;;;;;;2.52;73.91;98158.42;119950;1151;104432;-70
2021/01/07 04:42:28;;;;;;;34.67;17.93;;;;;;;2.56;73.42;98156.49;119997;1151;104459;-69
2021/01/07 04:44:56;;;;;;;34.67;17.73;;;;;;;2.59;73.40;98163.34;119964;1151;104352;-68
2021/01/07 04:47:24;;;;;;;30.77;16.77;;;;;;;2.59;73.96;98156.33;120066;1151;104423;-68
2021/01/07 04:49:52;;;;;;;36.47;18.17;;;;;;;2.60;73.38;98160.65;119949;1151;105121;-70
2021/01/07 04:52:19;;;;;;;33.90;17.57;;;;;;;2.59;73.79;98165.97;120251;1151;104380;-70
2021/01/07 04:54:47;;;;;;;40.55;21.73;;;;;;;2.56;73.86;98161.74;120061;1151;104455;-69
2021/01/07 04:57:20;;;;;;;36.70;19.23;;;;;;;2.55;73.96;98160.05;120086;1151;104426;-69
2021/01/07 04:59:47;;;;;;;36.80;19.07;;;;;;;2.52;73.52;98155.80;120024;1151;104378;-69
2021/01/07 05:02:17;;;;;;;36.63;18.43;;;;;;;2.52;73.75;98161.05;120030;1151;104378;-69
2021/01/07 05:04:52;;;;;;;37.67;19.87;;;;;;;2.52;73.51;98165.47;120047;1151;104387;-70
2021/01/07 05:07:20;;;;;;;32.33;17.43;;;;;;;2.51;74.00;98166.39;120053;1151;104375;-69
2021/01/07 05:09:59;;;;;;;39.33;19.80;;;;;;;2.53;74.12;98167.16;119961;1151;104375;-70
2021/01/07 05:12:26;;;;;;;38.90;21.27;;;;;;;2.55;73.73;98173.17;120060;1151;104429;-69
2021/01/07 05:14:53;;;;;;;40.07;22.03;;;;;;;2.56;73.87;98174.88;120067;1151;104536;-70
2021/01/07 05:17:20;;;;;;;35.83;20.40;;;;;;;2.57;73.86;98168.69;120032;1153;104393;-69
2021/01/07 05:19:47;;;;;;;38.57;21.10;;;;;;;2.56;73.31;98164.37;119961;1151;104478;-69
2021/01/07 05:22:15;;;;;;;38.00;20.27;;;;;;;2.57;73.50;98170.45;120033;1151;104449;-72
2021/01/07 05:24:42;;;;;;;39.87;21.20;;;;;;;2.59;73.84;98172.08;120106;1151;104356;-69
2021/01/07 05:27:15;;;;;;;37.87;20.30;;;;;;;2.61;73.68;98171.98;120090;1151;104429;-67
2021/01/07 05:29:44;;;;;;;42.78;21.95;;;;;;;2.61;74.35;98178.09;119972;1151;104452;-69
2021/01/07 05:32:11;;;;;;;39.75;21.20;;;;;;;2.64;73.87;98171.81;120050;1151;104452;-70
2021/01/07 05:34:49;;;;;;;37.70;20.00;;;;;;;2.65;74.00;98165.64;119995;1151;104375;-70
2021/01/07 05:37:19;;;;;;;35.23;19.47;;;;;;;2.64;73.86;98169.19;120101;1151;104445;-68
2021/01/07 05:39:48;;;;;;;36.65;20.40;;;;;;;2.67;74.03;98169.03;120082;1151;104426;-71
2021/01/07 05:42:16;;;;;;;36.23;19.93;;;;;;;2.71;74.32;98172.31;120083;1151;104492;-69
2021/01/07 05:44:49;;;;;;;35.95;19.20;;;;;;;2.73;73.95;98167.83;120107;1151;104892;-69
2021/01/07 05:47:29;;;;;;;34.53;19.02;;;;;;;2.76;74.16;98168.53;120070;1151;104850;-68
2021/01/07 05:49:57;;;;;;;33.13;18.33;;;;;;;2.78;74.55;98165.80;119988;1152;104541;-69
2021/01/07 05:52:31;;;;;;;36.55;20.30;;;;;;;2.80;74.59;98163.94;120236;1151;104497;-69
2021/01/07 05:55:00;;;;;;;36.97;19.03;;;;;;;2.82;74.71;98159.45;120005;1153;104383;-69
2021/01/07 05:57:29;;;;;;;38.57;19.77;;;;;;;2.84;74.43;98157.59;120019;1153;104494;-69
2021/01/07 05:59:57;;;;;;;38.50;18.75;;;;;;;2.87;73.97;98151.30;120017;1152;104380;-69
2021/01/07 06:02:27;;;;;;;37.97;18.90;;;;;;;2.90;74.35;98148.50;120112;1153;104352;-68
2021/01/07 06:04:55;;;;;;;36.50;17.35;;;;;;;2.91;74.35;98151.06;119963;1153;104498;-68
2021/01/07 06:07:28;;;;;;;35.45;18.90;;;;;;;2.92;74.44;98144.88;119998;1153;104563;-70
2021/01/07 06:09:56;;;;;;;34.27;18.40;;;;;;;2.93;74.59;98140.45;120037;1153;104372;-69
2021/01/07 06:12:25;;;;;;;38.87;19.83;;;;;;;2.93;74.46;98141.32;120018;1151;104521;-70
2021/01/07 06:14:52;;;;;;;37.33;19.33;;;;;;;2.95;74.33;98147.33;119988;1151;104458;-69
2021/01/07 06:17:23;;;;;;;40.30;20.03;;;;;;;2.96;74.50;98142.91;119923;1153;104575;-68
2021/01/07 06:19:53;;;;;;;34.97;19.07;;;;;;;2.98;74.13;98146.30;119882;1153;104426;-68
2021/01/07 06:22:22;;;;;;;37.03;20.77;;;;;;;2.98;74.54;98148.92;121106;1151;104449;-69
2021/01/07 06:24:56;;;;;;;41.20;21.07;;;;;;;2.99;74.21;98150.63;119961;1151;104381;-69
2021/01/07 06:27:32;;;;;;;42.00;21.25;;;;;;;3.01;74.29;98153.18;119829;1151;104380;-69
2021/01/07 06:29:59;;;;;;;43.53;22.00;;;;;;;3.03;74.41;98160.02;120000;1151;104446;-71
2021/01/07 06:32:30;;;;;;;45.23;23.70;;;;;;;3.05;74.18;98170.47;119962;1151;104373;-71
2021/01/07 06:34:58;;;;;;;41.13;22.53;;;;;;;3.05;74.65;98173.92;120062;1150;104495;-69
2021/01/07 06:37:36;;;;;;;46.13;24.67;;;;;;;3.06;74.62;98180.02;120018;1151;104500;-70
2021/01/07 06:40:06;;;;;;;44.33;25.40;;;;;;;3.09;74.63;98187.73;120061;1151;104391;-70
2021/01/07 06:42:41;;;;;;;44.30;23.00;;;;;;;3.10;74.50;98189.42;120057;1151;104514;-71
2021/01/07 06:45:11;;;;;;;42.53;21.60;;;;;;;3.10;74.32;98190.28;119986;1152;104435;-70
2021/01/07 06:47:39;;;;;;;37.50;18.90;;;;;;;3.10;74.85;98192.91;120020;1151;104386;-70
2021/01/07 06:50:10;;;;;;;37.77;19.30;;;;;;;3.05;74.34;98196.74;120037;1151;104486;-69
2021/01/07 06:52:44;;;;;;;38.40;19.47;;;;;;;2.96;73.63;98205.96;120052;1152;104459;-71
2021/01/07 06:55:14;;;;;;;37.23;19.40;;;;;;;2.88;73.99;98197.65;120095;1153;104453;-70
2021/01/07 06:57:48;;;;;;;36.10;18.07;;;;;;;2.87;73.78;98206.46;120037;1153;104782;-72
2021/01/07 07:00:18;;;;;;;36.80;18.50;;;;;;;2.85;74.38;98206.56;120037;1152;104956;-70
2021/01/07 07:03:02;;;;;;;31.97;15.70;;;;;;;2.86;74.75;98210.02;120140;1151;104430;-71
2021/01/07 07:05:34;;;;;;;33.00;16.07;;;;;;;2.88;74.56;98213.41;120108;1151;104454;-69
2021/01/07 07:08:10;;;;;;;31.77;15.47;;;;;;;2.86;74.69;98212.64;120157;1151;104537;-71
2021/01/07 07:10:37;;;;;;;32.13;15.73;;;;;;;2.83;73.89;98213.67;120003;1151;104454;-70
2021/01/07 07:13:18;;;;;;;30.55;16.60;;;;;;;2.80;74.06;98213.84;120037;1151;104448;-70
2021/01/07 07:15:47;;;;;;;31.80;16.70;;;;;;;2.80;74.69;98200.70;120040;1151;104447;-68
2021/01/07 07:18:25;;;;;;;33.23;16.47;;;;;;;2.81;74.86;98197.16;120047;1151;104453;-70
2021/01/07 07:20:53;;;;;;;32.43;17.40;;;;;;;2.82;74.11;98207.59;120029;1151;104508;-71
2021/01/07 07:23:22;;;;;;;31.90;15.53;;;;;;;2.82;74.28;98204.96;120000;1151;104437;-70
2021/01/07 07:25:51;;;;;;;34.73;17.80;;;;;;;2.80;74.15;98211.22;120080;1151;104375;-69
2021/01/07 07:28:25;;;;;;;33.43;16.33;;;;;;;2.76;74.64;98221.05;120100;1151;104426;-70
2021/01/07 07:30:52;;;;;;;41.23;19.25;;;;;;;2.72;74.20;98227.40;120141;1151;104422;-70
2021/01/07 07:33:40;;;;;;;39.17;19.60;;;;;;;2.73;74.36;98226.47;120072;1151;104550;-72
2021/01/07 07:36:09;;;;;;;38.17;20.83;;;;;;;2.72;74.83;98234.41;120045;1151;104355;-70
2021/01/07 07:38:39;;;;;;;39.83;20.37;;;;;;;2.73;74.80;98239.59;120057;1151;104393;-68
2021/01/07 07:41:10;;;;;;;32.97;16.67;;;;;;;2.75;74.80;98245.62;120035;1151;104426;-69
2021/01/07 07:43:39;;;;;;;41.53;20.07;;;;;;;2.73;74.92;98263.23;120018;1148;104857;-69
2021/01/07 07:46:07;;;;;;;42.57;21.90;;;;;;;2.75;74.79;98264.00;120071;1151;104602;-70
2021/01/07 07:48:38;;;;;;;40.53;19.77;;;;;;;2.77;74.80;98263.91;120037;1151;104426;-68
2021/01/07 07:51:10;;;;;;;34.30;17.45;;;;;;;2.76;74.51;98264.84;120025;1151;104454;-70
2021/01/07 07:53:39;;;;;;;35.33;18.57;;;;;;;2.74;74.00;98267.55;120052;1151;104426;-68
2021/01/07 07:56:19;;;;;;;35.17;17.70;;;;;;;2.74;74.74;98270.19;120109;1151;104447;-70
2021/01/07 07:58:46;;;;;;;35.97;18.00;;;;;;;2.70;74.89;98273.91;120026;1151;104350;-70
2021/01/07 08:01:13;;;;;;;41.37;21.00;;;;;;;2.71;74.78;98272.97;120021;1151;104385;-68
2021/01/07 08:03:40;;;;;;;41.80;21.07;;;;;;;2.72;74.61;98279.05;120028;1151;104423;-70
2021/01/07 08:06:07;;;;;;;44.87;22.73;;;;;;;2.73;74.12;98278.13;120031;1151;104851;-70
2021/01/07 08:08:34;;;;;;;39.95;21.85;;;;;;;2.73;74.31;98278.98;120073;1151;104492;-69
2021/01/07 08:11:02;;;;;;;38.97;21.13;;;;;;;2.72;74.52;98273.80;120038;1151;104449;-70
2021/01/07 08:13:30;;;;;;;46.10;23.30;;;;;;;2.69;74.01;98280.08;120071;1151;104560;-70
2021/01/07 08:16:02;;;;;;;43.23;22.13;;;;;;;2.64;74.74;98276.84;120110;1151;104397;-70
2021/01/07 08:18:29;;;;;;;43.97;23.90;;;;;;;2.61;74.80;98284.88;120035;1151;104880;-68
2021/01/07 08:21:09;;;;;;;45.57;23.97;;;;;;;2.56;74.40;98285.14;120064;1151;104429;-69
2021/01/07 08:23:38;;;;;;;43.90;23.40;;;;;;;2.55;73.88;98290.45;120001;1151;104657;-68
2021/01/07 08:26:05;;;;;;;40.73;22.77;;;;;;;2.52;74.92;98283.59;120025;1151;104354;-68
2021/01/07 08:28:44;;;;;;;44.00;24.07;;;;;;;2.48;74.13;98288.14;120032;1151;104419;-68
2021/01/07 08:31:14;;;;;;;39.60;21.03;;;;;;;2.43;74.72;98290.19;120038;1151;104426;-67
2021/01/07 08:33:41;;;;;;;42.17;22.53;;;;;;;2.38;74.17;98298.28;120034;1151;104352;-69
2021/01/07 08:36:11;;;;;;;41.63;23.40;;;;;;;2.35;74.67;98302.85;120044;1151;104484;-68
2021/01/07 08:38:39;;;;;;;40.83;22.97;;;;;;;2.26;74.26;98306.77;119976;1151;104361;-68
2021/01/07 08:41:21;;;;;;;45.53;25.13;;;;;;;2.19;74.39;98302.79;120065;1151;104579;-69
2021/01/07 08:43:51;;;;;;;44.77;24.03;;;;;;;2.19;74.61;98302.79;120027;1148;104457;-68
2021/01/07 08:46:24;;;;;;;49.23;26.57;;;;;;;2.17;74.80;98299.39;120073;1151;104522;-68
2021/01/07 08:49:01;;;;;;;42.83;23.47;;;;;;;2.14;74.29;98297.76;120082;1151;104380;-68
2021/01/07 08:51:35;;;;;;;38.00;19.67;;;;;;;2.08;74.54;98301.55;120029;1151;104852;-68
2021/01/07 08:54:10;;;;;;;43.80;23.97;;;;;;;2.02;74.79;98301.02;120010;1151;104460;-67
2021/01/07 08:56:45;;;;;;;40.40;22.43;;;;;;;2.01;74.98;98299.32;120040;1151;104425;-68
2021/01/07 08:59:39;;;;;;;43.97;22.97;;;;;;;2.04;75.01;98299.14;120058;1151;104429;-68
2021/01/07 09:02:05;;;;;;;39.47;21.53;;;;;;;2.00;74.53;98301.08;120045;1151;104508;-69
2021/01/07 09:04:40;;;;;;;44.40;24.97;;;;;;;2.00;74.96;98300.25;120036;1151;104927;-70
2021/01/07 09:07:09;;;;;;;47.07;25.60;;;;;;;1.99;74.91;98304.62;120048;1151;104361;-69
2021/01/07 09:09:43;;;;;;;47.20;27.80;;;;;;;1.99;74.90;98302.00;120095;1151;104436;-68
2021/01/07 09:12:14;;;;;;;47.40;26.80;;;;;;;2.00;75.14;98306.33;120142;1151;104457;-67
2021/01/07 09:14:54;;;;;;;52.27;27.80;;;;;;;2.00;74.68;98308.11;120027;1151;104628;-70
2021/01/07 09:17:38;;;;;;;46.73;23.20;;;;;;;1.99;74.20;98307.25;120011;1151;104487;-68
2021/01/07 09:20:16;;;;;;;50.43;28.47;;;;;;;1.95;74.68;98305.70;120025;1151;104492;-70
2021/01/07 09:22:44;;;;;;;57.45;31.65;;;;;;;1.94;74.85;98306.63;119993;1151;104498;-69
2021/01/07 09:25:17;;;;;;;52.40;28.30;;;;;;;1.96;74.71;98311.81;120077;1151;104383;-70
2021/01/07 09:27:46;;;;;;;51.63;29.03;;;;;;;1.95;74.55;98310.11;120009;1151;104477;-68
2021/01/07 09:30:13;;;;;;;49.90;26.30;;;;;;;2.00;75.19;98308.95;120049;1151;104377;-70
2021/01/07 09:32:43;;;;;;;52.87;28.53;;;;;;;2.00;75.42;98313.36;120105;1151;104399;-68
2021/01/07 09:35:12;;;;;;;56.47;31.13;;;;;;;2.02;75.00;98314.13;120084;1151;104382;-69
2021/01/07 09:37:57;;;;;;;58.83;32.13;;;;;;;2.06;75.27;98316.52;120066;1150;104381;-69
2021/01/07 09:40:25;;;;;;;56.50;31.10;;;;;;;2.10;75.29;98311.12;120019;1151;104652;-72
2021/01/07 09:42:53;;;;;;;55.70;30.20;;;;;;;2.12;75.27;98312.73;120037;1151;104450;-67
2021/01/07 09:45:21;;;;;;;57.50;32.70;;;;;;;2.07;74.61;98312.97;120049;1151;104361;-69
2021/01/07 09:47:48;;;;;;;56.23;30.97;;;;;;;2.05;75.35;98314.82;120035;1151;104358;-68
2021/01/07 09:50:15;;;;;;;43.00;22.13;;;;;;;2.07;74.77;98314.73;120039;1151;104511;-69
2021/01/07 09:52:42;;;;;;;57.20;31.10;;;;;;;2.04;75.19;98307.00;119994;1150;104572;-69
2021/01/07 09:55:11;;;;;;;55.60;30.50;;;;;;;2.00;75.10;98310.73;120002;1151;104430;-68
2021/01/07 09:57:38;;;;;;;59.33;32.67;;;;;;;1.96;74.71;98309.19;120055;1151;104480;-67
2021/01/07 10:00:07;;;;;;;61.87;33.43;;;;;;;1.97;74.94;98306.47;120021;1151;104433;-69
2021/01/07 10:02:34;;;;;;;56.50;31.33;;;;;;;1.97;75.21;98301.23;120082;1151;104388;-71
2021/01/07 10:05:02;;;;;;;60.73;33.63;;;;;;;1.98;75.42;98308.17;119529;1151;104420;-69
2021/01/07 10:07:29;;;;;;;54.67;29.40;;;;;;;2.01;75.65;98308.02;119844;1151;104481;-70
2021/01/07 10:09:56;;;;;;;56.47;31.57;;;;;;;2.02;75.25;98304.47;119956;1151;104401;-69
2021/01/07 10:12:23;;;;;;;56.33;31.07;;;;;;;2.03;75.01;98313.21;120004;1151;104921;-69
2021/01/07 10:14:50;;;;;;;58.17;32.63;;;;;;;2.01;75.35;98304.56;119925;1151;105235;-69
2021/01/07 10:17:18;;;;;;;58.55;32.30;;;;;;;2.00;75.28;98311.57;120024;1151;104391;-68
2021/01/07 10:19:45;;;;;;;53.50;29.52;;;;;;;2.03;74.95;98302.72;119884;1151;104761;-70
2021/01/07 10:22:19;;;;;;;53.45;30.50;;;;;;;2.06;75.26;98306.02;119956;1151;104848;-70
2021/01/07 10:24:55;;;;;;;54.77;29.70;;;;;;;2.06;75.10;98303.40;120037;1151;104477;-68
2021/01/07 10:27:24;;;;;;;58.00;29.73;;;;;;;2.10;74.94;98298.83;119975;1151;104454;-69
2021/01/07 10:29:52;;;;;;;59.07;31.77;;;;;;;2.14;75.35;98305.62;119922;1151;104404;-71
2021/01/07 10:32:20;;;;;;;55.27;30.97;;;;;;;2.15;75.66;98291.58;119972;1151;104383;-69
2021/01/07 10:34:51;;;;;;;54.07;28.80;;;;;;;2.16;75.32;98302.94;120026;1151;104464;-67
2021/01/07 10:37:22;;;;;;;61.47;32.37;;;;;;;2.15;75.21;98307.33;119992;1151;104435;-68
2021/01/07 10:39:54;;;;;;;61.20;33.63;;;;;;;2.16;74.95;98302.94;119991;1151;104368;-70
2021/01/07 10:42:23;;;;;;;61.37;35.23;;;;;;;2.15;75.46;98304.70;120018;1151;104393;-67
2021/01/07 10:44:52;;;;;;;60.23;32.00;;;;;;;2.14;75.47;98300.38;119936;1151;104453;-70
2021/01/07 10:47:20;;;;;;;62.93;36.70;;;;;;;2.15;75.29;98312.58;119992;1151;104454;-70
2021/01/07 10:49:47;;;;;;;54.53;30.80;;;;;;;2.17;75.53;98307.27;119956;1151;104497;-69
2021/01/07 10:52:47;;;;;;;65.75;36.75;;;;;;;2.16;75.04;98306.41;119994;1151;104409;-69
2021/01/07 10:55:17;;;;;;;68.73;38.83;;;;;;;2.18;75.66;98303.72;119953;1151;104497;-70
2021/01/07 10:57:57;;;;;;;64.27;36.93;;;;;;;2.22;74.64;98302.64;119899;1151;104950;-70
2021/01/07 11:00:43;;;;;;;62.30;34.70;;;;;;;2.26;75.72;98306.77;120070;1150;104377;-68
2021/01/07 11:03:31;;;;;;;70.00;38.47;;;;;;;2.26;75.61;98312.02;120009;1151;104522;-69
2021/01/07 11:06:03;;;;;;;67.30;37.90;;;;;;;2.27;75.54;98307.64;120085;1151;104902;-70
2021/01/07 11:08:39;;;;;;;64.30;37.87;;;;;;;2.24;75.07;98311.28;120050;1151;104877;-70
2021/01/07 11:11:40;;;;;;;65.55;37.55;;;;;;;2.27;75.19;98310.27;120084;1151;104355;-69
2021/01/07 11:14:49;;;;;;;59.57;32.73;;;;;;;2.29;75.59;98311.87;119973;1151;104376;-68
2021/01/07 11:17:23;;;;;;;60.57;32.07;;;;;;;2.29;75.48;98311.87;119916;1151;104419;-69
2021/01/07 11:19:53;;;;;;;56.50;33.35;;;;;;;2.25;75.19;98306.86;120031;1151;104374;-69
2021/01/07 11:22:28;;;;;;;60.23;31.27;;;;;;;2.28;75.83;98315.42;120054;1151;104580;-70